sensor_id;sensor_type;location;lat;lon;timestamp;temperature;humidity
19031;DHT22;9648;51.130;13.978;2022-09-16T00:02:20;12.20;99.90
19031;DHT22;9648;51.130;13.978;2022-09-16T00:04:48;12.20;99.90
19031;DHT22;9648;51.130;13.978;2022-09-16T00:07:15;12.20;99.90
19031;DHT22;9648;51.130;13.978;2022-09-16T00:09:41;12.10;99.90
19031;DHT22;9648;51.130;13.978;2022-09-16T00:12:08;12.10;99.90
19031;DHT22;9648;51.130;13.978;2022-09-16T00:14:34;12.00;99.90
19031;DHT22;9648;51.130;13.978;2022-09-16T00:17:01;12.00;99.90
19031;DHT22;9648;51.130;13.978;2022-09-16T00:19:29;12.00;99.90
19031;DHT22;9648;51.130;13.978;2022-09-16T00:21:58;11.90;99.90
19031;DHT22;9648;51.130;13.978;2022-09-16T00:24:25;11.90;99.90
19031;DHT22;9648;51.130;13.978;2022-09-16T00:26:52;11.90;99.90
19031;DHT22;9648;51.130;13.978;2022-09-16T00:29:19;11.80;99.90
19031;DHT22;9648;51.130;13.978;2022-09-16T00:31:46;11.80;99.90
19031;DHT22;9648;51.130;13.978;2022-09-16T00:34:13;11.70;99.90
19031;DHT22;9648;51.130;13.978;2022-09-16T00:36:39;11.70;99.90
19031;DHT22;9648;51.130;13.978;2022-09-16T00:39:07;11.70;99.90
19031;DHT22;9648;51.130;13.978;2022-09-16T00:41:34;11.70;99.90
19031;DHT22;9648;51.130;13.978;2022-09-16T00:44:03;11.70;99.90
19031;DHT22;9648;51.130;13.978;2022-09-16T00:46:35;11.70;99.90
19031;DHT22;9648;51.130;13.978;2022-09-16T00:49:08;11.70;99.90
19031;DHT22;9648;51.130;13.978;2022-09-16T00:51:37;11.70;99.90
19031;DHT22;9648;51.130;13.978;2022-09-16T00:54:07;11.70;99.90
19031;DHT22;9648;51.130;13.978;2022-09-16T00:56:36;11.70;99.90
19031;DHT22;9648;51.130;13.978;2022-09-16T00:59:05;11.80;99.90
19031;DHT22;9648;51.130;13.978;2022-09-16T01:01:34;11.80;99.90
19031;DHT22;9648;51.130;13.978;2022-09-16T01:04:03;11.80;99.90
19031;DHT22;9648;51.130;13.978;2022-09-16T01:06:35;11.80;99.90
19031;DHT22;9648;51.130;13.978;2022-09-16T01:09:03;11.80;99.90
19031;DHT22;9648;51.130;13.978;2022-09-16T01:11:31;11.90;99.90
19031;DHT22;9648;51.130;13.978;2022-09-16T01:13:58;11.90;99.90
19031;DHT22;9648;51.130;13.978;2022-09-16T01:16:50;11.90;99.90
19031;DHT22;9648;51.130;13.978;2022-09-16T01:19:36;11.90;99.90
19031;DHT22;9648;51.130;13.978;2022-09-16T01:22:16;11.90;99.90
19031;DHT22;9648;51.130;13.978;2022-09-16T01:24:51;11.90;99.90
19031;DHT22;9648;51.130;13.978;2022-09-16T01:27:37;11.80;99.90
19031;DHT22;9648;51.130;13.978;2022-09-16T01:33:16;11.90;99.90
19031;DHT22;9648;51.130;13.978;2022-09-16T01:36:02;11.90;99.90
19031;DHT22;9648;51.130;13.978;2022-09-16T01:38:43;11.90;99.90
19031;DHT22;9648;51.130;13.978;2022-09-16T01:41:18;11.90;99.90
19031;DHT22;9648;51.130;13.978;2022-09-16T01:43:51;11.90;99.90
19031;DHT22;9648;51.130;13.978;2022-09-16T01:46:28;11.90;99.90
19031;DHT22;9648;51.130;13.978;2022-09-16T01:49:01;11.90;99.90
19031;DHT22;9648;51.130;13.978;2022-09-16T01:51:36;12.00;99.90
19031;DHT22;9648;51.130;13.978;2022-09-16T01:54:08;12.00;99.90
19031;DHT22;9648;51.130;13.978;2022-09-16T01:56:41;12.00;99.90
19031;DHT22;9648;51.130;13.978;2022-09-16T01:59:14;11.90;99.90
19031;DHT22;9648;51.130;13.978;2022-09-16T02:01:46;11.90;99.90
19031;DHT22;9648;51.130;13.978;2022-09-16T02:04:20;11.90;99.90
19031;DHT22;9648;51.130;13.978;2022-09-16T02:06:48;11.90;99.90
19031;DHT22;9648;51.130;13.978;2022-09-16T02:09:19;11.90;99.90
19031;DHT22;9648;51.130;13.978;2022-09-16T02:11:49;11.90;99.90
19031;DHT22;9648;51.130;13.978;2022-09-16T02:14:19;11.90;99.90
19031;DHT22;9648;51.130;13.978;2022-09-16T02:16:52;11.90;99.90
19031;DHT22;9648;51.130;13.978;2022-09-16T02:19:23;11.90;99.90
19031;DHT22;9648;51.130;13.978;2022-09-16T02:21:52;11.90;99.90
19031;DHT22;9648;51.130;13.978;2022-09-16T02:24:21;11.90;99.90
19031;DHT22;9648;51.130;13.978;2022-09-16T02:26:51;11.90;99.90
19031;DHT22;9648;51.130;13.978;2022-09-16T02:29:22;11.80;99.90
19031;DHT22;9648;51.130;13.978;2022-09-16T02:31:51;11.80;99.90
19031;DHT22;9648;51.130;13.978;2022-09-16T02:34:25;11.80;99.90
19031;DHT22;9648;51.130;13.978;2022-09-16T02:36:55;11.90;99.90
19031;DHT22;9648;51.130;13.978;2022-09-16T02:39:27;11.80;99.90
19031;DHT22;9648;51.130;13.978;2022-09-16T02:41:56;11.90;99.90
19031;DHT22;9648;51.130;13.978;2022-09-16T02:44:24;11.80;99.90
19031;DHT22;9648;51.130;13.978;2022-09-16T02:46:56;11.80;99.90
19031;DHT22;9648;51.130;13.978;2022-09-16T02:49:31;11.80;99.90
19031;DHT22;9648;51.130;13.978;2022-09-16T02:52:08;11.80;99.90
19031;DHT22;9648;51.130;13.978;2022-09-16T02:54:43;11.80;99.90
19031;DHT22;9648;51.130;13.978;2022-09-16T02:57:11;11.80;99.90
19031;DHT22;9648;51.130;13.978;2022-09-16T02:59:38;11.80;99.90
19031;DHT22;9648;51.130;13.978;2022-09-16T03:02:05;11.80;99.90
19031;DHT22;9648;51.130;13.978;2022-09-16T03:04:34;11.80;99.90
19031;DHT22;9648;51.130;13.978;2022-09-16T03:07:02;11.80;99.90
19031;DHT22;9648;51.130;13.978;2022-09-16T03:09:29;11.80;99.90
19031;DHT22;9648;51.130;13.978;2022-09-16T03:12:11;11.80;99.90
19031;DHT22;9648;51.130;13.978;2022-09-16T03:17:46;11.80;99.90
19031;DHT22;9648;51.130;13.978;2022-09-16T03:20:24;11.80;99.90
19031;DHT22;9648;51.130;13.978;2022-09-16T03:22:59;11.80;99.90
19031;DHT22;9648;51.130;13.978;2022-09-16T03:25:40;11.80;99.90
19031;DHT22;9648;51.130;13.978;2022-09-16T03:28:11;11.80;99.90
19031;DHT22;9648;51.130;13.978;2022-09-16T03:30:46;11.80;99.90
19031;DHT22;9648;51.130;13.978;2022-09-16T03:33:20;11.80;99.90
19031;DHT22;9648;51.130;13.978;2022-09-16T03:35:51;11.80;99.90
19031;DHT22;9648;51.130;13.978;2022-09-16T03:38:21;11.80;99.90
19031;DHT22;9648;51.130;13.978;2022-09-16T03:40:48;11.80;99.90
19031;DHT22;9648;51.130;13.978;2022-09-16T03:43:16;11.80;99.90
19031;DHT22;9648;51.130;13.978;2022-09-16T03:45:43;11.80;99.90
19031;DHT22;9648;51.130;13.978;2022-09-16T03:48:10;11.90;99.90
19031;DHT22;9648;51.130;13.978;2022-09-16T03:50:37;11.80;99.90
19031;DHT22;9648;51.130;13.978;2022-09-16T03:53:05;11.90;99.90
19031;DHT22;9648;51.130;13.978;2022-09-16T03:55:32;11.90;99.90
19031;DHT22;9648;51.130;13.978;2022-09-16T03:57:59;11.90;99.90
19031;DHT22;9648;51.130;13.978;2022-09-16T04:00:26;11.90;99.90
19031;DHT22;9648;51.130;13.978;2022-09-16T04:02:54;11.90;99.90
19031;DHT22;9648;51.130;13.978;2022-09-16T04:05:21;11.90;99.90
19031;DHT22;9648;51.130;13.978;2022-09-16T04:07:48;11.90;99.90
19031;DHT22;9648;51.130;13.978;2022-09-16T04:10:16;11.90;99.90
19031;DHT22;9648;51.130;13.978;2022-09-16T04:12:43;11.90;99.90
19031;DHT22;9648;51.130;13.978;2022-09-16T04:15:10;11.90;99.90
19031;DHT22;9648;51.130;13.978;2022-09-16T04:17:37;11.90;99.90
19031;DHT22;9648;51.130;13.978;2022-09-16T04:20:05;11.90;99.90
19031;DHT22;9648;51.130;13.978;2022-09-16T04:22:32;11.80;99.90
19031;DHT22;9648;51.130;13.978;2022-09-16T04:24:59;11.80;99.90
19031;DHT22;9648;51.130;13.978;2022-09-16T04:27:27;11.80;99.90
19031;DHT22;9648;51.130;13.978;2022-09-16T04:29:54;11.80;99.90
19031;DHT22;9648;51.130;13.978;2022-09-16T04:32:20;11.80;99.90
19031;DHT22;9648;51.130;13.978;2022-09-16T04:34:47;11.80;99.90
19031;DHT22;9648;51.130;13.978;2022-09-16T04:37:14;11.80;99.90
19031;DHT22;9648;51.130;13.978;2022-09-16T04:39:40;11.80;99.90
19031;DHT22;9648;51.130;13.978;2022-09-16T04:42:07;11.80;99.90
19031;DHT22;9648;51.130;13.978;2022-09-16T04:44:38;11.80;99.90
19031;DHT22;9648;51.130;13.978;2022-09-16T04:47:05;11.80;99.90
19031;DHT22;9648;51.130;13.978;2022-09-16T04:49:31;11.90;99.90
19031;DHT22;9648;51.130;13.978;2022-09-16T04:51:58;11.90;99.90
19031;DHT22;9648;51.130;13.978;2022-09-16T04:54:25;11.90;99.90
19031;DHT22;9648;51.130;13.978;2022-09-16T04:56:52;11.90;99.90
19031;DHT22;9648;51.130;13.978;2022-09-16T04:59:18;11.80;99.90
19031;DHT22;9648;51.130;13.978;2022-09-16T05:01:47;11.90;99.90
19031;DHT22;9648;51.130;13.978;2022-09-16T05:04:14;11.90;99.90
19031;DHT22;9648;51.130;13.978;2022-09-16T05:06:41;11.90;99.90
19031;DHT22;9648;51.130;13.978;2022-09-16T05:09:10;11.90;99.90
19031;DHT22;9648;51.130;13.978;2022-09-16T05:11:38;11.90;99.90
19031;DHT22;9648;51.130;13.978;2022-09-16T05:14:07;11.80;99.90
19031;DHT22;9648;51.130;13.978;2022-09-16T05:16:34;11.80;99.90
19031;DHT22;9648;51.130;13.978;2022-09-16T05:19:03;11.80;99.90
19031;DHT22;9648;51.130;13.978;2022-09-16T05:21:31;11.80;99.90
19031;DHT22;9648;51.130;13.978;2022-09-16T05:23:59;11.80;99.90
19031;DHT22;9648;51.130;13.978;2022-09-16T05:26:29;11.80;99.90
19031;DHT22;9648;51.130;13.978;2022-09-16T05:28:59;11.90;99.90
19031;DHT22;9648;51.130;13.978;2022-09-16T05:31:28;11.80;99.90
19031;DHT22;9648;51.130;13.978;2022-09-16T05:33:57;11.90;99.90
19031;DHT22;9648;51.130;13.978;2022-09-16T05:36:27;11.90;99.90
19031;DHT22;9648;51.130;13.978;2022-09-16T05:38:54;12.00;99.90
19031;DHT22;9648;51.130;13.978;2022-09-16T05:41:21;11.90;99.90
19031;DHT22;9648;51.130;13.978;2022-09-16T05:43:48;12.00;99.90
19031;DHT22;9648;51.130;13.978;2022-09-16T05:46:18;12.00;99.90
19031;DHT22;9648;51.130;13.978;2022-09-16T05:48:45;12.10;99.90
19031;DHT22;9648;51.130;13.978;2022-09-16T05:51:14;12.10;99.90
19031;DHT22;9648;51.130;13.978;2022-09-16T05:53:42;12.10;99.90
19031;DHT22;9648;51.130;13.978;2022-09-16T05:56:11;12.10;99.90
19031;DHT22;9648;51.130;13.978;2022-09-16T05:58:39;12.10;99.90
19031;DHT22;9648;51.130;13.978;2022-09-16T06:01:08;12.10;99.90
19031;DHT22;9648;51.130;13.978;2022-09-16T06:03:36;12.20;99.90
19031;DHT22;9648;51.130;13.978;2022-09-16T06:06:05;12.20;99.90
19031;DHT22;9648;51.130;13.978;2022-09-16T06:08:34;12.10;99.90
19031;DHT22;9648;51.130;13.978;2022-09-16T06:11:04;12.20;99.90
19031;DHT22;9648;51.130;13.978;2022-09-16T06:13:31;12.20;99.90
19031;DHT22;9648;51.130;13.978;2022-09-16T06:15:58;12.20;99.90
19031;DHT22;9648;51.130;13.978;2022-09-16T06:18:27;12.20;99.90
19031;DHT22;9648;51.130;13.978;2022-09-16T06:20:54;12.10;99.90
19031;DHT22;9648;51.130;13.978;2022-09-16T06:23:22;12.20;99.90
19031;DHT22;9648;51.130;13.978;2022-09-16T06:25:57;12.20;99.90
19031;DHT22;9648;51.130;13.978;2022-09-16T06:28:25;12.20;99.90
19031;DHT22;9648;51.130;13.978;2022-09-16T06:31:00;12.30;99.90
19031;DHT22;9648;51.130;13.978;2022-09-16T06:33:27;12.40;99.90
19031;DHT22;9648;51.130;13.978;2022-09-16T06:35:54;12.50;99.90
19031;DHT22;9648;51.130;13.978;2022-09-16T06:38:21;12.50;99.90
19031;DHT22;9648;51.130;13.978;2022-09-16T06:40:47;12.50;99.90
19031;DHT22;9648;51.130;13.978;2022-09-16T06:43:15;12.50;99.90
19031;DHT22;9648;51.130;13.978;2022-09-16T06:45:43;12.60;99.90
19031;DHT22;9648;51.130;13.978;2022-09-16T06:48:10;12.80;99.90
19031;DHT22;9648;51.130;13.978;2022-09-16T06:50:36;12.90;99.90
19031;DHT22;9648;51.130;13.978;2022-09-16T06:53:03;12.90;99.90
19031;DHT22;9648;51.130;13.978;2022-09-16T06:55:30;12.90;99.90
19031;DHT22;9648;51.130;13.978;2022-09-16T06:57:56;12.90;99.90
19031;DHT22;9648;51.130;13.978;2022-09-16T07:00:23;12.90;99.90
19031;DHT22;9648;51.130;13.978;2022-09-16T07:02:51;12.90;99.90
19031;DHT22;9648;51.130;13.978;2022-09-16T07:05:17;12.80;99.90
19031;DHT22;9648;51.130;13.978;2022-09-16T07:07:44;12.80;99.90
19031;DHT22;9648;51.130;13.978;2022-09-16T07:10:11;12.80;99.90
19031;DHT22;9648;51.130;13.978;2022-09-16T07:12:37;12.80;99.90
19031;DHT22;9648;51.130;13.978;2022-09-16T07:15:05;12.90;99.90
19031;DHT22;9648;51.130;13.978;2022-09-16T07:17:33;12.90;99.90
19031;DHT22;9648;51.130;13.978;2022-09-16T07:20:01;13.00;99.90
19031;DHT22;9648;51.130;13.978;2022-09-16T07:22:30;13.10;99.90
19031;DHT22;9648;51.130;13.978;2022-09-16T07:24:56;13.10;99.90
19031;DHT22;9648;51.130;13.978;2022-09-16T07:27:23;13.10;99.90
19031;DHT22;9648;51.130;13.978;2022-09-16T07:29:50;13.20;99.90
19031;DHT22;9648;51.130;13.978;2022-09-16T07:32:18;13.30;99.90
19031;DHT22;9648;51.130;13.978;2022-09-16T07:34:44;13.40;99.90
19031;DHT22;9648;51.130;13.978;2022-09-16T07:37:12;13.50;99.90
19031;DHT22;9648;51.130;13.978;2022-09-16T07:39:39;13.50;99.90
19031;DHT22;9648;51.130;13.978;2022-09-16T07:42:06;13.50;99.90
19031;DHT22;9648;51.130;13.978;2022-09-16T07:44:32;13.50;99.90
19031;DHT22;9648;51.130;13.978;2022-09-16T07:46:59;13.50;99.90
19031;DHT22;9648;51.130;13.978;2022-09-16T07:49:26;13.40;99.90
19031;DHT22;9648;51.130;13.978;2022-09-16T07:51:52;13.40;99.90
19031;DHT22;9648;51.130;13.978;2022-09-16T07:54:20;13.40;99.90
19031;DHT22;9648;51.130;13.978;2022-09-16T07:56:47;13.50;99.90
19031;DHT22;9648;51.130;13.978;2022-09-16T07:59:16;13.50;99.90
19031;DHT22;9648;51.130;13.978;2022-09-16T08:01:43;13.60;99.90
19031;DHT22;9648;51.130;13.978;2022-09-16T08:04:10;13.70;99.90
19031;DHT22;9648;51.130;13.978;2022-09-16T08:06:38;13.70;99.90
19031;DHT22;9648;51.130;13.978;2022-09-16T08:09:05;13.80;99.90
19031;DHT22;9648;51.130;13.978;2022-09-16T08:11:33;13.80;99.90
19031;DHT22;9648;51.130;13.978;2022-09-16T08:14:01;13.90;99.90
19031;DHT22;9648;51.130;13.978;2022-09-16T08:16:27;14.00;99.90
19031;DHT22;9648;51.130;13.978;2022-09-16T08:18:56;14.00;99.90
19031;DHT22;9648;51.130;13.978;2022-09-16T08:21:25;14.00;99.90
19031;DHT22;9648;51.130;13.978;2022-09-16T08:23:53;14.20;99.90
19031;DHT22;9648;51.130;13.978;2022-09-16T08:26:20;14.10;99.90
19031;DHT22;9648;51.130;13.978;2022-09-16T08:28:49;14.10;99.90
19031;DHT22;9648;51.130;13.978;2022-09-16T08:31:16;14.00;99.90
19031;DHT22;9648;51.130;13.978;2022-09-16T08:33:43;13.90;99.90
19031;DHT22;9648;51.130;13.978;2022-09-16T08:36:12;13.90;99.90
19031;DHT22;9648;51.130;13.978;2022-09-16T08:38:41;13.80;99.90
19031;DHT22;9648;51.130;13.978;2022-09-16T08:41:24;13.70;99.90
19031;DHT22;9648;51.130;13.978;2022-09-16T08:43:58;13.50;99.90
19031;DHT22;9648;51.130;13.978;2022-09-16T08:46:33;13.50;99.90
19031;DHT22;9648;51.130;13.978;2022-09-16T08:49:07;13.50;99.90
19031;DHT22;9648;51.130;13.978;2022-09-16T08:51:36;13.60;99.90
19031;DHT22;9648;51.130;13.978;2022-09-16T08:54:08;13.60;99.90
19031;DHT22;9648;51.130;13.978;2022-09-16T08:56:37;13.70;99.90
19031;DHT22;9648;51.130;13.978;2022-09-16T08:59:11;13.80;99.90
19031;DHT22;9648;51.130;13.978;2022-09-16T09:01:42;14.00;99.90
19031;DHT22;9648;51.130;13.978;2022-09-16T09:04:11;14.20;99.90
19031;DHT22;9648;51.130;13.978;2022-09-16T09:06:54;14.30;99.90
19031;DHT22;9648;51.130;13.978;2022-09-16T09:12:15;14.30;99.90
19031;DHT22;9648;51.130;13.978;2022-09-16T09:14:59;14.20;99.90
19031;DHT22;9648;51.130;13.978;2022-09-16T09:17:36;14.20;99.90
19031;DHT22;9648;51.130;13.978;2022-09-16T09:20:14;14.20;99.90
19031;DHT22;9648;51.130;13.978;2022-09-16T09:22:54;14.40;99.90
19031;DHT22;9648;51.130;13.978;2022-09-16T09:25:29;14.60;99.90
19031;DHT22;9648;51.130;13.978;2022-09-16T09:28:07;14.60;99.90
19031;DHT22;9648;51.130;13.978;2022-09-16T09:30:41;14.70;99.90
19031;DHT22;9648;51.130;13.978;2022-09-16T09:33:20;14.70;99.90
19031;DHT22;9648;51.130;13.978;2022-09-16T09:36:04;14.80;99.90
19031;DHT22;9648;51.130;13.978;2022-09-16T09:38:44;15.00;99.90
19031;DHT22;9648;51.130;13.978;2022-09-16T09:41:17;15.10;99.90
19031;DHT22;9648;51.130;13.978;2022-09-16T09:43:49;15.20;99.90
19031;DHT22;9648;51.130;13.978;2022-09-16T09:46:24;15.30;99.90
19031;DHT22;9648;51.130;13.978;2022-09-16T09:48:57;15.30;99.90
19031;DHT22;9648;51.130;13.978;2022-09-16T09:51:29;15.20;99.90
19031;DHT22;9648;51.130;13.978;2022-09-16T09:54:00;15.10;99.90
19031;DHT22;9648;51.130;13.978;2022-09-16T09:56:30;15.00;99.90
19031;DHT22;9648;51.130;13.978;2022-09-16T09:59:07;15.00;99.90
19031;DHT22;9648;51.130;13.978;2022-09-16T10:01:39;15.10;99.90
19031;DHT22;9648;51.130;13.978;2022-09-16T10:04:09;15.10;99.90
19031;DHT22;9648;51.130;13.978;2022-09-16T10:06:37;15.20;99.90
19031;DHT22;9648;51.130;13.978;2022-09-16T10:09:04;15.10;99.90
19031;DHT22;9648;51.130;13.978;2022-09-16T10:11:45;15.00;99.90
19031;DHT22;9648;51.130;13.978;2022-09-16T10:14:22;14.70;99.90
19031;DHT22;9648;51.130;13.978;2022-09-16T10:16:52;14.40;99.90
19031;DHT22;9648;51.130;13.978;2022-09-16T10:19:22;14.00;99.90
19031;DHT22;9648;51.130;13.978;2022-09-16T10:21:50;13.50;99.90
19031;DHT22;9648;51.130;13.978;2022-09-16T10:24:30;13.10;99.90
19031;DHT22;9648;51.130;13.978;2022-09-16T10:26:59;12.80;99.90
19031;DHT22;9648;51.130;13.978;2022-09-16T10:29:26;12.80;99.90
19031;DHT22;9648;51.130;13.978;2022-09-16T10:31:55;12.80;99.90
19031;DHT22;9648;51.130;13.978;2022-09-16T10:34:30;12.70;99.90
19031;DHT22;9648;51.130;13.978;2022-09-16T10:37:02;12.60;99.90
19031;DHT22;9648;51.130;13.978;2022-09-16T10:39:31;12.60;99.90
19031;DHT22;9648;51.130;13.978;2022-09-16T10:42:01;12.60;99.90
19031;DHT22;9648;51.130;13.978;2022-09-16T10:44:32;12.60;99.90
19031;DHT22;9648;51.130;13.978;2022-09-16T10:47:04;12.70;99.90
19031;DHT22;9648;51.130;13.978;2022-09-16T10:49:37;12.70;99.90
19031;DHT22;9648;51.130;13.978;2022-09-16T10:52:14;12.70;99.90
19031;DHT22;9648;51.130;13.978;2022-09-16T10:54:42;12.60;99.90
19031;DHT22;9648;51.130;13.978;2022-09-16T10:57:20;12.60;99.90
19031;DHT22;9648;51.130;13.978;2022-09-16T10:59:58;12.70;99.90
19031;DHT22;9648;51.130;13.978;2022-09-16T11:05:18;13.10;99.90
19031;DHT22;9648;51.130;13.978;2022-09-16T11:07:53;13.20;99.90
19031;DHT22;9648;51.130;13.978;2022-09-16T11:10:26;13.20;99.90
19031;DHT22;9648;51.130;13.978;2022-09-16T11:13:07;13.40;99.90
19031;DHT22;9648;51.130;13.978;2022-09-16T11:15:48;13.40;99.90
19031;DHT22;9648;51.130;13.978;2022-09-16T11:18:34;13.40;99.90
19031;DHT22;9648;51.130;13.978;2022-09-16T11:21:14;13.40;99.90
19031;DHT22;9648;51.130;13.978;2022-09-16T11:23:59;13.60;99.90
19031;DHT22;9648;51.130;13.978;2022-09-16T11:26:36;13.90;99.90
19031;DHT22;9648;51.130;13.978;2022-09-16T11:29:17;14.40;99.90
19031;DHT22;9648;51.130;13.978;2022-09-16T11:31:53;14.80;99.90
19031;DHT22;9648;51.130;13.978;2022-09-16T11:34:36;15.00;99.90
19031;DHT22;9648;51.130;13.978;2022-09-16T11:37:12;15.10;99.90
19031;DHT22;9648;51.130;13.978;2022-09-16T11:39:53;15.10;99.90
19031;DHT22;9648;51.130;13.978;2022-09-16T11:42:27;15.00;99.90
19031;DHT22;9648;51.130;13.978;2022-09-16T11:45:01;15.00;99.90
19031;DHT22;9648;51.130;13.978;2022-09-16T11:47:40;15.00;99.90
19031;DHT22;9648;51.130;13.978;2022-09-16T11:50:20;15.00;99.90
19031;DHT22;9648;51.130;13.978;2022-09-16T11:53:03;15.00;99.90
19031;DHT22;9648;51.130;13.978;2022-09-16T11:55:45;14.90;99.90
19031;DHT22;9648;51.130;13.978;2022-09-16T11:58:21;15.00;99.90
19031;DHT22;9648;51.130;13.978;2022-09-16T12:00:52;15.20;99.90
19031;DHT22;9648;51.130;13.978;2022-09-16T12:03:24;15.20;99.90
19031;DHT22;9648;51.130;13.978;2022-09-16T12:05:57;15.20;99.90
19031;DHT22;9648;51.130;13.978;2022-09-16T12:08:31;15.30;99.90
19031;DHT22;9648;51.130;13.978;2022-09-16T12:11:04;15.50;99.90
19031;DHT22;9648;51.130;13.978;2022-09-16T12:13:38;15.60;99.90
19031;DHT22;9648;51.130;13.978;2022-09-16T12:16:08;15.90;99.90
19031;DHT22;9648;51.130;13.978;2022-09-16T12:18:40;16.10;99.90
19031;DHT22;9648;51.130;13.978;2022-09-16T12:21:15;16.10;99.90
19031;DHT22;9648;51.130;13.978;2022-09-16T12:23:50;16.00;99.90
19031;DHT22;9648;51.130;13.978;2022-09-16T12:26:19;15.90;99.90
19031;DHT22;9648;51.130;13.978;2022-09-16T12:28:56;15.80;99.90
19031;DHT22;9648;51.130;13.978;2022-09-16T12:31:29;15.60;99.90
19031;DHT22;9648;51.130;13.978;2022-09-16T12:34:03;15.60;99.90
19031;DHT22;9648;51.130;13.978;2022-09-16T12:36:34;15.50;99.90
19031;DHT22;9648;51.130;13.978;2022-09-16T12:39:01;15.40;99.90
19031;DHT22;9648;51.130;13.978;2022-09-16T12:41:50;15.40;99.90
19031;DHT22;9648;51.130;13.978;2022-09-16T12:44:48;15.30;99.90
19031;DHT22;9648;51.130;13.978;2022-09-16T12:47:36;14.90;99.90
19031;DHT22;9648;51.130;13.978;2022-09-16T12:50:35;14.60;99.90
19031;DHT22;9648;51.130;13.978;2022-09-16T12:53:36;14.30;99.90
19031;DHT22;9648;51.130;13.978;2022-09-16T12:56:13;14.20;99.90
19031;DHT22;9648;51.130;13.978;2022-09-16T12:59:10;14.30;99.90
19031;DHT22;9648;51.130;13.978;2022-09-16T13:01:44;14.50;99.90
19031;DHT22;9648;51.130;13.978;2022-09-16T13:04:15;14.80;99.90
19031;DHT22;9648;51.130;13.978;2022-09-16T13:06:45;15.00;99.90
19031;DHT22;9648;51.130;13.978;2022-09-16T13:09:21;15.10;99.90
19031;DHT22;9648;51.130;13.978;2022-09-16T13:11:56;15.20;99.90
19031;DHT22;9648;51.130;13.978;2022-09-16T13:14:28;15.50;99.90
19031;DHT22;9648;51.130;13.978;2022-09-16T13:16:57;15.60;99.90
19031;DHT22;9648;51.130;13.978;2022-09-16T13:19:34;15.70;99.90
19031;DHT22;9648;51.130;13.978;2022-09-16T13:22:12;16.00;99.90
19031;DHT22;9648;51.130;13.978;2022-09-16T13:24:45;16.30;99.90
19031;DHT22;9648;51.130;13.978;2022-09-16T13:27:31;16.40;99.90
19031;DHT22;9648;51.130;13.978;2022-09-16T13:30:29;16.10;99.90
19031;DHT22;9648;51.130;13.978;2022-09-16T13:32:58;15.80;99.90
19031;DHT22;9648;51.130;13.978;2022-09-16T13:35:37;15.60;99.90
19031;DHT22;9648;51.130;13.978;2022-09-16T13:38:34;15.40;99.90
19031;DHT22;9648;51.130;13.978;2022-09-16T13:41:05;15.30;99.90
19031;DHT22;9648;51.130;13.978;2022-09-16T13:43:34;15.10;99.90
19031;DHT22;9648;51.130;13.978;2022-09-16T13:46:09;15.00;99.90
19031;DHT22;9648;51.130;13.978;2022-09-16T13:48:40;14.90;99.90
19031;DHT22;9648;51.130;13.978;2022-09-16T13:51:14;14.80;99.90
19031;DHT22;9648;51.130;13.978;2022-09-16T13:53:44;14.90;99.90
19031;DHT22;9648;51.130;13.978;2022-09-16T13:56:27;15.00;99.90
19031;DHT22;9648;51.130;13.978;2022-09-16T13:59:05;15.20;99.90
19031;DHT22;9648;51.130;13.978;2022-09-16T14:01:37;15.30;99.90
19031;DHT22;9648;51.130;13.978;2022-09-16T14:04:09;15.50;99.90
19031;DHT22;9648;51.130;13.978;2022-09-16T14:06:55;15.60;99.90
19031;DHT22;9648;51.130;13.978;2022-09-16T14:09:30;15.70;99.90
19031;DHT22;9648;51.130;13.978;2022-09-16T14:12:08;15.70;99.90
19031;DHT22;9648;51.130;13.978;2022-09-16T14:14:37;15.50;99.90
19031;DHT22;9648;51.130;13.978;2022-09-16T14:17:14;15.20;99.90
19031;DHT22;9648;51.130;13.978;2022-09-16T14:19:43;14.90;99.90
19031;DHT22;9648;51.130;13.978;2022-09-16T14:22:14;14.70;99.90
19031;DHT22;9648;51.130;13.978;2022-09-16T14:24:43;14.60;99.90
19031;DHT22;9648;51.130;13.978;2022-09-16T14:27:19;14.60;99.90
19031;DHT22;9648;51.130;13.978;2022-09-16T14:29:57;14.60;99.90
19031;DHT22;9648;51.130;13.978;2022-09-16T14:32:25;14.70;99.90
19031;DHT22;9648;51.130;13.978;2022-09-16T14:34:54;14.70;99.90
19031;DHT22;9648;51.130;13.978;2022-09-16T14:37:24;14.60;99.90
19031;DHT22;9648;51.130;13.978;2022-09-16T14:39:52;14.60;99.90
19031;DHT22;9648;51.130;13.978;2022-09-16T14:42:22;14.60;99.90
19031;DHT22;9648;51.130;13.978;2022-09-16T14:44:51;14.50;99.90
19031;DHT22;9648;51.130;13.978;2022-09-16T14:47:22;14.40;99.90
19031;DHT22;9648;51.130;13.978;2022-09-16T14:49:53;14.40;99.90
19031;DHT22;9648;51.130;13.978;2022-09-16T14:52:22;14.40;99.90
19031;DHT22;9648;51.130;13.978;2022-09-16T14:54:49;14.30;99.90
19031;DHT22;9648;51.130;13.978;2022-09-16T14:57:18;14.30;99.90
19031;DHT22;9648;51.130;13.978;2022-09-16T14:59:49;14.30;99.90
19031;DHT22;9648;51.130;13.978;2022-09-16T15:02:22;14.20;99.90
19031;DHT22;9648;51.130;13.978;2022-09-16T15:04:53;14.30;99.90
19031;DHT22;9648;51.130;13.978;2022-09-16T15:07:26;14.40;99.90
19031;DHT22;9648;51.130;13.978;2022-09-16T15:09:56;14.60;99.90
19031;DHT22;9648;51.130;13.978;2022-09-16T15:12:27;14.70;99.90
19031;DHT22;9648;51.130;13.978;2022-09-16T15:14:56;14.80;99.90
19031;DHT22;9648;51.130;13.978;2022-09-16T15:17:25;14.80;99.90
19031;DHT22;9648;51.130;13.978;2022-09-16T15:19:55;14.80;99.90
19031;DHT22;9648;51.130;13.978;2022-09-16T15:22:23;14.70;99.90
19031;DHT22;9648;51.130;13.978;2022-09-16T15:24:52;14.80;99.90
19031;DHT22;9648;51.130;13.978;2022-09-16T15:27:21;14.90;99.90
19031;DHT22;9648;51.130;13.978;2022-09-16T15:29:53;14.80;99.90
19031;DHT22;9648;51.130;13.978;2022-09-16T15:32:23;14.80;99.90
19031;DHT22;9648;51.130;13.978;2022-09-16T15:35:26;14.80;99.90
19031;DHT22;9648;51.130;13.978;2022-09-16T15:37:54;14.90;99.90
19031;DHT22;9648;51.130;13.978;2022-09-16T15:40:29;14.90;99.90
19031;DHT22;9648;51.130;13.978;2022-09-16T15:43:11;14.90;99.90
19031;DHT22;9648;51.130;13.978;2022-09-16T15:45:38;15.00;99.90
19031;DHT22;9648;51.130;13.978;2022-09-16T15:48:12;14.90;99.90
19031;DHT22;9648;51.130;13.978;2022-09-16T15:50:44;14.90;99.90
19031;DHT22;9648;51.130;13.978;2022-09-16T15:53:15;14.90;99.90
19031;DHT22;9648;51.130;13.978;2022-09-16T15:55:52;15.00;99.90
19031;DHT22;9648;51.130;13.978;2022-09-16T15:58:30;15.00;99.90
19031;DHT22;9648;51.130;13.978;2022-09-16T16:01:07;15.00;99.90
19031;DHT22;9648;51.130;13.978;2022-09-16T16:03:48;15.00;99.90
19031;DHT22;9648;51.130;13.978;2022-09-16T16:06:16;15.10;99.90
19031;DHT22;9648;51.130;13.978;2022-09-16T16:08:45;15.10;99.90
19031;DHT22;9648;51.130;13.978;2022-09-16T16:11:14;15.00;99.90